Terminal Aerodrome Forecast
Issued by NWS Wakefield, VA

Home | Current Version | Previous Version | Text Only | Print | Product List | Glossary On
Versions: 1 2 3 4 5 6 7 8 9 10 11 12 13
000
FTUS41 KAKQ 271120
TAFRIC
TAF
KRIC 271120Z 2712/2812 35006KT P6SM BKN090
     FM271600 30005KT P6SM BKN060
     FM280000 24004KT P6SM SCT150=

USA.gov is the U.S. government's official web portal to all federal, state and local government web resources and services.